createdAt,value
2018-07-12T04:27:25.290Z,16.30
2018-07-12T04:30:27.500Z,16.90
2018-07-12T04:33:29.711Z,17.30
2018-07-12T04:36:31.909Z,17.70
2018-07-12T04:39:34.126Z,18.10
2018-07-12T04:42:36.356Z,18.50
2018-07-12T04:45:38.568Z,18.80
2018-07-12T04:48:40.757Z,18.90
2018-07-12T04:51:42.959Z,18.90
2018-07-12T04:54:45.158Z,19.10
2018-07-12T04:57:47.393Z,19.40
2018-07-12T05:00:49.605Z,19.60
2018-07-12T05:03:51.814Z,19.70
2018-07-12T05:06:54.022Z,19.50
2018-07-12T05:09:56.227Z,19.20
2018-07-12T05:12:58.530Z,18.90
2018-07-12T05:16:00.740Z,18.80
2018-07-12T05:19:02.949Z,18.60
2018-07-12T05:22:05.165Z,18.30
2018-07-12T05:25:07.374Z,18.00
2018-07-12T05:28:09.625Z,18.00
2018-07-12T05:31:11.830Z,18.30
2018-07-12T05:34:14.047Z,18.30
2018-07-12T05:37:17.327Z,18.30
2018-07-12T05:40:21.178Z,18.30
2018-07-12T05:43:24.497Z,18.20
2018-07-12T05:46:27.761Z,18.10
2018-07-12T05:49:30.967Z,17.80
2018-07-12T05:52:34.157Z,17.70
2018-07-12T05:55:37.476Z,17.90
2018-07-12T05:58:40.710Z,18.20
2018-07-12T06:01:55.352Z,18.30
2018-07-12T06:04:58.862Z,18.30
2018-07-12T06:08:02.078Z,18.30
2018-07-12T06:11:05.282Z,18.40
2018-07-12T06:14:08.543Z,18.40
2018-07-12T06:20:14.711Z,18.50
2018-07-12T06:23:17.942Z,18.70
2018-07-12T06:26:21.150Z,18.90
2018-07-12T06:29:24.346Z,19.40
2018-07-12T06:32:27.550Z,19.90
2018-07-12T06:35:30.733Z,20.00
2018-07-12T06:38:33.939Z,19.80
2018-07-12T06:41:37.141Z,19.80
2018-07-12T06:44:40.414Z,19.80
2018-07-12T06:47:43.627Z,20.20
2018-07-12T06:50:46.819Z,20.40
2018-07-12T06:53:50.027Z,20.80
2018-07-12T06:56:53.234Z,21.00
2018-07-12T06:59:56.486Z,21.10
2018-07-12T07:02:59.674Z,20.80
2018-07-12T07:06:02.878Z,20.60
2018-07-12T07:09:08.274Z,20.60
2018-07-12T07:12:12.445Z,20.70
2018-07-12T07:15:15.674Z,20.50
2018-07-12T07:18:18.905Z,20.30
2018-07-12T07:21:22.112Z,20.60
2018-07-12T07:24:25.666Z,21.10
2018-07-12T07:27:29.170Z,21.20
2018-07-12T07:30:32.374Z,21.10
2018-07-12T07:33:35.575Z,20.90
2018-07-12T07:36:38.790Z,20.90
2018-07-12T07:39:42.047Z,21.00
2018-07-12T07:42:46.153Z,21.30
2018-07-12T07:45:49.354Z,21.50
2018-07-12T07:48:52.551Z,21.40
2018-07-12T07:51:55.751Z,21.50
2018-07-12T07:54:58.963Z,21.50
2018-07-12T07:58:02.758Z,21.60
2018-07-12T08:01:05.978Z,21.70
2018-07-12T08:04:09.283Z,21.70
2018-07-12T08:07:12.488Z,21.60
2018-07-12T08:10:15.794Z,21.40
2018-07-12T08:13:19.027Z,21.40
2018-07-12T08:16:22.285Z,21.70
2018-07-12T08:19:25.468Z,22.10
2018-07-12T08:22:28.641Z,22.20
2018-07-12T08:25:31.831Z,22.40
2018-07-12T08:28:35.036Z,22.50
2018-07-12T08:31:38.238Z,22.70
2018-07-12T08:34:41.440Z,22.60
2018-07-12T08:37:44.642Z,22.70
2018-07-12T08:40:48.339Z,23.00
2018-07-12T08:43:51.602Z,23.80
2018-07-12T08:46:54.922Z,24.50
2018-07-12T08:49:58.215Z,25.00
2018-07-12T08:53:01.519Z,25.10
2018-07-12T08:56:04.820Z,26.10
2018-07-12T09:02:11.022Z,27.70
2018-07-12T09:08:17.180Z,29.00
2018-07-12T09:11:20.391Z,28.90
2018-07-12T09:14:23.587Z,29.40
2018-07-12T09:17:26.750Z,29.90
2018-07-12T09:20:29.921Z,30.30
2018-07-12T09:23:33.247Z,31.50
2018-07-12T09:26:36.498Z,32.40
2018-07-12T09:29:39.669Z,31.80
2018-07-12T09:32:42.828Z,31.70
2018-07-12T09:35:46.039Z,31.10
2018-07-12T09:41:53.372Z,31.40
2018-07-12T09:44:56.906Z,31.70
2018-07-12T09:48:00.062Z,32.00
2018-07-12T09:51:03.328Z,31.80
2018-07-12T09:54:06.478Z,32.30
2018-07-12T09:57:21.514Z,32.00
2018-07-12T10:00:30.087Z,32.20
2018-07-12T10:04:06.243Z,32.20
2018-07-12T10:07:14.852Z,32.10
2018-07-12T10:10:19.659Z,32.30
2018-07-12T10:13:25.345Z,33.00
2018-07-12T10:16:33.950Z,32.90
2018-07-12T10:19:37.103Z,32.30
2018-07-12T10:22:40.490Z,32.40
2018-07-12T10:25:43.658Z,32.60
2018-07-12T10:28:48.692Z,32.80
2018-07-12T10:31:52.679Z,32.50
2018-07-12T10:34:56.090Z,32.10
2018-07-12T10:37:59.243Z,31.00
2018-07-12T10:41:02.400Z,31.30
2018-07-12T10:44:05.947Z,31.60
2018-07-12T10:47:10.233Z,31.90
2018-07-12T10:50:13.501Z,31.70
2018-07-12T10:53:16.842Z,32.00
2018-07-12T10:56:20.857Z,31.80
2018-07-12T10:59:24.410Z,32.00
2018-07-12T11:02:27.638Z,32.60
2018-07-12T11:05:30.797Z,32.40
2018-07-12T11:08:33.946Z,32.50
2018-07-12T11:11:37.122Z,32.60
2018-07-12T11:14:40.598Z,32.50
2018-07-12T11:17:43.938Z,32.30
2018-07-12T11:20:47.704Z,32.40
2018-07-12T11:23:53.709Z,32.30
2018-07-12T11:26:57.331Z,32.30
2018-07-12T11:30:00.498Z,32.10
2018-07-12T11:33:14.134Z,32.40
2018-07-12T11:36:19.706Z,32.40
2018-07-12T11:39:24.695Z,32.40
2018-07-12T11:42:28.043Z,31.70
2018-07-12T11:45:31.192Z,31.20
2018-07-12T11:48:35.582Z,30.60
2018-07-12T11:54:42.527Z,30.00
2018-07-12T11:57:45.710Z,29.80
2018-07-12T12:00:49.523Z,29.50
2018-07-12T12:03:53.743Z,29.10
2018-07-12T12:06:57.029Z,28.80
2018-07-12T12:10:00.144Z,28.60
2018-07-12T12:13:03.365Z,28.80
2018-07-12T12:16:06.453Z,28.80
2018-07-12T12:19:09.882Z,28.80
2018-07-12T12:22:13.058Z,28.80
2018-07-12T12:25:16.220Z,29.10
2018-07-12T12:28:23.739Z,29.00
2018-07-12T12:31:28.663Z,29.60
2018-07-12T12:34:31.824Z,29.80
2018-07-12T12:37:34.980Z,29.50
2018-07-12T12:40:38.279Z,28.90
2018-07-12T12:43:43.129Z,28.60
2018-07-12T12:46:48.606Z,28.40
2018-07-12T12:52:57.027Z,28.70
2018-07-12T12:56:00.326Z,29.20
2018-07-12T12:59:03.514Z,29.30
2018-07-12T13:02:06.711Z,29.20
2018-07-12T13:05:10.298Z,29.30
2018-07-12T13:08:13.632Z,29.30
2018-07-12T13:11:17.694Z,28.90
2018-07-12T13:14:22.351Z,29.10
2018-07-12T13:20:29.655Z,29.00
2018-07-12T13:23:32.865Z,28.60
2018-07-12T13:26:36.116Z,28.20
2018-07-12T13:29:39.323Z,27.90
2018-07-12T13:32:43.239Z,27.70
2018-07-12T13:35:46.700Z,27.70
2018-07-12T13:38:52.998Z,27.80
2018-07-12T13:41:58.077Z,28.10
2018-07-12T13:48:04.218Z,29.00
2018-07-12T13:51:08.149Z,29.20
2018-07-12T13:54:12.664Z,29.20
2018-07-12T13:57:15.934Z,29.10
2018-07-12T14:00:20.340Z,28.80
2018-07-12T14:03:24.012Z,28.50
2018-07-12T14:06:27.329Z,28.00
2018-07-12T14:09:30.527Z,27.70
2018-07-12T14:12:33.738Z,27.40
2018-07-12T14:15:36.936Z,27.30
2018-07-12T14:18:40.405Z,27.20
2018-07-12T14:21:43.629Z,27.40
2018-07-12T14:24:46.842Z,27.20
2018-07-12T14:27:50.629Z,26.80
2018-07-12T14:30:53.871Z,26.40
2018-07-12T14:37:00.075Z,25.70
2018-07-12T14:40:03.266Z,25.70
2018-07-12T14:43:07.138Z,25.70
2018-07-12T14:46:10.611Z,26.00
2018-07-12T14:49:13.838Z,26.30
2018-07-12T14:52:17.038Z,26.70
2018-07-12T14:55:20.230Z,27.00
2018-07-12T14:58:23.883Z,27.00
2018-07-12T15:01:27.111Z,27.00
2018-07-12T15:04:30.276Z,27.00
2018-07-12T15:07:33.453Z,26.80
2018-07-12T15:10:36.630Z,27.30
2018-07-12T15:13:39.802Z,27.40
2018-07-12T15:16:43.077Z,27.80
2018-07-12T15:19:46.179Z,28.20
2018-07-12T15:22:49.377Z,28.40
2018-07-12T15:25:52.622Z,28.70
2018-07-12T15:28:55.799Z,28.80
2018-07-12T15:31:58.954Z,28.90
2018-07-12T15:35:02.160Z,28.90
2018-07-12T15:38:05.435Z,28.60
2018-07-12T15:44:12.015Z,27.80
2018-07-12T15:47:15.180Z,27.70
2018-07-12T15:50:23.108Z,27.80
2018-07-12T15:53:26.272Z,27.80
2018-07-12T15:56:29.493Z,27.50
2018-07-12T15:59:32.933Z,27.30
2018-07-12T16:02:36.183Z,27.10
2018-07-12T16:05:39.391Z,26.90
2018-07-12T16:08:42.615Z,27.00
2018-07-12T16:11:46.844Z,27.10
2018-07-12T16:14:50.035Z,27.20
2018-07-12T16:17:53.250Z,27.30
2018-07-12T16:20:57.150Z,27.30
2018-07-12T16:24:00.371Z,27.10
2018-07-12T16:27:03.599Z,27.20
2018-07-12T16:30:06.863Z,27.10
2018-07-12T16:33:10.046Z,27.00
2018-07-12T16:36:13.247Z,26.90
2018-07-12T16:39:16.457Z,27.10
2018-07-12T16:42:19.686Z,27.30
2018-07-12T16:45:23.450Z,27.20
2018-07-12T16:48:26.655Z,27.20
2018-07-12T16:51:29.903Z,27.20
2018-07-12T16:54:33.494Z,27.30
2018-07-12T16:57:36.699Z,27.30
2018-07-12T17:00:39.902Z,27.20
2018-07-12T17:03:43.093Z,27.20
2018-07-12T17:06:46.393Z,27.10
2018-07-12T17:09:49.984Z,27.00
2018-07-12T17:12:53.214Z,27.00
2018-07-12T17:15:56.692Z,27.10
2018-07-12T17:18:59.924Z,27.00
2018-07-12T17:25:06.150Z,27.00
2018-07-12T17:31:12.363Z,26.80
2018-07-12T17:34:15.850Z,26.90
2018-07-12T17:37:19.304Z,26.90
2018-07-12T17:40:23.246Z,26.70
2018-07-12T17:43:26.545Z,26.50
2018-07-12T17:46:29.742Z,26.30
2018-07-12T17:49:33.374Z,26.00
2018-07-12T17:52:37.027Z,25.80
2018-07-12T17:55:40.572Z,25.60
2018-07-12T17:58:44.008Z,25.30
2018-07-12T18:01:47.507Z,25.20
2018-07-12T18:04:51.190Z,25.10
2018-07-12T18:07:54.703Z,25.00
2018-07-12T18:10:58.270Z,24.90
2018-07-12T18:14:01.832Z,25.00
2018-07-12T18:17:05.072Z,25.10
2018-07-12T18:20:08.502Z,25.00
2018-07-12T18:23:11.891Z,25.00
2018-07-12T18:26:15.102Z,24.90
2018-07-12T18:29:18.662Z,24.80
2018-07-12T18:32:21.858Z,24.80
2018-07-12T18:35:25.757Z,24.70
2018-07-12T18:38:29.127Z,24.60
2018-07-12T18:41:32.787Z,24.50
2018-07-12T18:44:36.558Z,24.40
2018-07-12T18:47:39.738Z,24.30
2018-07-12T18:50:43.106Z,24.20
2018-07-12T18:53:46.415Z,24.10
2018-07-12T18:56:50.154Z,24.10
2018-07-12T18:59:53.327Z,24.00
2018-07-12T19:02:56.586Z,23.90
2018-07-12T19:05:59.966Z,23.80
2018-07-12T19:09:04.219Z,23.70
2018-07-12T19:12:07.430Z,23.50
2018-07-12T19:15:10.699Z,23.40
2018-07-12T19:18:13.754Z,23.30
2018-07-12T19:21:16.940Z,23.20
2018-07-12T19:24:20.075Z,23.00
2018-07-12T19:27:23.314Z,22.80
2018-07-12T19:30:26.641Z,22.80
2018-07-12T19:33:30.333Z,22.70
2018-07-12T19:36:33.488Z,22.70
2018-07-12T19:39:36.750Z,22.60
2018-07-12T19:42:40.170Z,22.50
2018-07-12T19:45:43.655Z,22.30
2018-07-12T19:48:48.068Z,22.20
2018-07-12T19:51:54.615Z,22.10
2018-07-12T19:54:58.082Z,22.10
2018-07-12T19:58:01.677Z,22.00
2018-07-12T20:01:04.849Z,21.90
2018-07-12T20:04:08.311Z,21.80
2018-07-12T20:07:12.029Z,21.70
2018-07-12T20:10:15.437Z,21.60
2018-07-12T20:16:21.699Z,21.30
2018-07-12T20:19:25.229Z,21.20
2018-07-12T20:22:28.407Z,21.20
2018-07-12T20:25:31.566Z,21.20
2018-07-12T20:28:34.738Z,21.10
2018-07-12T20:31:37.938Z,21.00
2018-07-12T20:34:41.130Z,20.80
2018-07-12T20:37:44.254Z,20.80
2018-07-12T20:40:47.467Z,20.70
2018-07-12T20:43:51.200Z,20.70
2018-07-12T20:46:54.383Z,20.50
2018-07-12T20:49:57.525Z,20.40
2018-07-12T20:53:00.810Z,20.20
2018-07-12T20:56:04.151Z,20.00
2018-07-12T20:59:07.399Z,19.90
2018-07-12T21:02:10.579Z,19.70
2018-07-12T21:05:13.747Z,19.60
2018-07-12T21:08:16.961Z,19.60
2018-07-12T21:11:20.167Z,19.60
2018-07-12T21:14:23.370Z,19.60
2018-07-12T21:17:26.525Z,19.60
2018-07-12T21:20:30.670Z,19.70
2018-07-12T21:23:34.104Z,19.60
2018-07-12T21:26:37.214Z,19.40
2018-07-12T21:29:40.787Z,19.40
2018-07-12T21:32:43.987Z,19.30
2018-07-12T21:35:47.203Z,19.10
2018-07-12T21:38:50.603Z,19.00
2018-07-12T21:41:53.816Z,19.10
2018-07-12T21:44:57.023Z,19.10
2018-07-12T21:48:00.272Z,19.00
2018-07-12T21:51:03.496Z,18.90
2018-07-12T21:54:06.746Z,18.70
2018-07-12T21:57:09.954Z,18.60
2018-07-12T22:00:13.175Z,18.40
2018-07-12T22:03:16.364Z,18.30
2018-07-12T22:06:27.559Z,18.00
2018-07-12T22:09:30.799Z,18.20
2018-07-12T22:12:33.977Z,18.10
2018-07-12T22:15:37.211Z,18.00
2018-07-12T22:21:50.188Z,18.00
2018-07-12T22:24:53.395Z,17.90
2018-07-12T22:27:56.560Z,17.90
2018-07-12T22:30:59.710Z,17.70
2018-07-12T22:34:02.878Z,17.60
2018-07-12T22:37:06.046Z,17.50
2018-07-12T22:40:09.231Z,17.40
2018-07-12T22:43:12.401Z,17.30
2018-07-12T22:46:15.562Z,17.20
2018-07-12T22:49:18.746Z,17.10
2018-07-12T22:52:21.919Z,17.10
2018-07-12T22:55:25.108Z,17.00
2018-07-12T22:58:28.281Z,16.80
2018-07-12T23:01:31.434Z,16.80
2018-07-12T23:04:34.605Z,16.70
2018-07-12T23:07:37.771Z,16.70
2018-07-12T23:10:40.955Z,16.60
2018-07-12T23:13:44.123Z,16.80
2018-07-12T23:16:47.321Z,16.80
2018-07-12T23:19:50.600Z,16.60
2018-07-12T23:22:53.769Z,16.50
2018-07-12T23:25:56.931Z,16.50
2018-07-12T23:29:00.111Z,16.50
2018-07-12T23:32:03.266Z,16.50
2018-07-12T23:35:06.439Z,16.40
2018-07-12T23:38:09.617Z,16.20
2018-07-12T23:41:12.786Z,16.20
2018-07-12T23:44:15.956Z,16.00
2018-07-12T23:47:19.117Z,16.00
2018-07-12T23:50:22.306Z,15.90
2018-07-12T23:53:25.467Z,15.90
2018-07-12T23:56:28.934Z,15.90
2018-07-12T23:59:32.095Z,15.90
